sensor_id;sensor_type;location;lat;lon;timestamp;P1;durP1;ratioP1;P2;durP2;ratioP2
19985;SDS011;10154;52.474;10.768;2023-08-06T00:01:22;9.35;;;3.40;;
19985;SDS011;10154;52.474;10.768;2023-08-06T00:03:49;5.50;;;3.00;;
19985;SDS011;10154;52.474;10.768;2023-08-06T00:06:14;9.68;;;3.35;;
19985;SDS011;10154;52.474;10.768;2023-08-06T00:08:39;5.28;;;3.28;;
19985;SDS011;10154;52.474;10.768;2023-08-06T00:11:04;5.45;;;3.47;;
19985;SDS011;10154;52.474;10.768;2023-08-06T00:13:30;4.78;;;2.80;;
19985;SDS011;10154;52.474;10.768;2023-08-06T00:15:55;5.80;;;3.08;;
19985;SDS011;10154;52.474;10.768;2023-08-06T00:18:20;6.88;;;3.40;;
19985;SDS011;10154;52.474;10.768;2023-08-06T00:20:46;5.87;;;3.17;;
19985;SDS011;10154;52.474;10.768;2023-08-06T00:23:11;8.30;;;3.00;;
19985;SDS011;10154;52.474;10.768;2023-08-06T00:25:36;4.88;;;2.97;;
19985;SDS011;10154;52.474;10.768;2023-08-06T00:28:02;6.22;;;3.25;;
19985;SDS011;10154;52.474;10.768;2023-08-06T00:30:28;7.93;;;3.05;;
19985;SDS011;10154;52.474;10.768;2023-08-06T00:32:54;6.63;;;2.85;;
19985;SDS011;10154;52.474;10.768;2023-08-06T00:35:19;6.30;;;2.75;;
19985;SDS011;10154;52.474;10.768;2023-08-06T00:37:44;3.78;;;2.60;;
19985;SDS011;10154;52.474;10.768;2023-08-06T00:40:10;3.88;;;2.80;;
19985;SDS011;10154;52.474;10.768;2023-08-06T00:42:35;3.10;;;2.40;;
19985;SDS011;10154;52.474;10.768;2023-08-06T00:45:01;3.80;;;2.20;;
19985;SDS011;10154;52.474;10.768;2023-08-06T00:47:26;3.33;;;2.22;;
19985;SDS011;10154;52.474;10.768;2023-08-06T00:49:52;2.58;;;2.22;;
19985;SDS011;10154;52.474;10.768;2023-08-06T00:52:17;4.53;;;2.53;;
19985;SDS011;10154;52.474;10.768;2023-08-06T00:54:42;5.72;;;2.47;;
19985;SDS011;10154;52.474;10.768;2023-08-06T00:57:08;7.70;;;2.78;;
19985;SDS011;10154;52.474;10.768;2023-08-06T00:59:34;6.50;;;2.28;;
19985;SDS011;10154;52.474;10.768;2023-08-06T01:01:59;5.22;;;2.65;;
19985;SDS011;10154;52.474;10.768;2023-08-06T01:04:25;8.63;;;2.70;;
19985;SDS011;10154;52.474;10.768;2023-08-06T01:09:43;4.25;;;2.88;;
19985;SDS011;10154;52.474;10.768;2023-08-06T01:12:20;3.42;;;2.60;;
19985;SDS011;10154;52.474;10.768;2023-08-06T01:17:23;3.27;;;2.10;;
19985;SDS011;10154;52.474;10.768;2023-08-06T01:19:49;4.07;;;2.20;;
19985;SDS011;10154;52.474;10.768;2023-08-06T01:22:14;4.93;;;2.65;;
19985;SDS011;10154;52.474;10.768;2023-08-06T01:24:40;7.10;;;2.40;;
19985;SDS011;10154;52.474;10.768;2023-08-06T01:27:08;3.97;;;2.40;;
19985;SDS011;10154;52.474;10.768;2023-08-06T01:29:39;4.53;;;2.40;;
19985;SDS011;10154;52.474;10.768;2023-08-06T01:32:08;4.75;;;2.33;;
19985;SDS011;10154;52.474;10.768;2023-08-06T01:34:35;4.13;;;2.45;;
19985;SDS011;10154;52.474;10.768;2023-08-06T01:37:03;7.90;;;2.70;;
19985;SDS011;10154;52.474;10.768;2023-08-06T01:39:30;5.68;;;2.97;;
19985;SDS011;10154;52.474;10.768;2023-08-06T01:41:58;4.97;;;2.90;;
19985;SDS011;10154;52.474;10.768;2023-08-06T01:44:23;4.82;;;3.05;;
19985;SDS011;10154;52.474;10.768;2023-08-06T01:46:48;5.15;;;3.78;;
19985;SDS011;10154;52.474;10.768;2023-08-06T01:49:14;3.80;;;2.80;;
19985;SDS011;10154;52.474;10.768;2023-08-06T01:51:39;7.88;;;3.38;;
19985;SDS011;10154;52.474;10.768;2023-08-06T01:54:04;5.20;;;3.00;;
19985;SDS011;10154;52.474;10.768;2023-08-06T01:56:30;4.15;;;3.22;;
19985;SDS011;10154;52.474;10.768;2023-08-06T01:58:55;6.85;;;2.80;;
19985;SDS011;10154;52.474;10.768;2023-08-06T02:01:20;5.15;;;3.00;;
19985;SDS011;10154;52.474;10.768;2023-08-06T02:03:46;9.10;;;3.37;;
19985;SDS011;10154;52.474;10.768;2023-08-06T02:06:11;4.10;;;3.15;;
19985;SDS011;10154;52.474;10.768;2023-08-06T02:08:36;6.38;;;3.03;;
19985;SDS011;10154;52.474;10.768;2023-08-06T02:11:02;6.28;;;2.90;;
19985;SDS011;10154;52.474;10.768;2023-08-06T02:13:27;5.75;;;2.90;;
19985;SDS011;10154;52.474;10.768;2023-08-06T02:15:53;3.63;;;2.60;;
19985;SDS011;10154;52.474;10.768;2023-08-06T02:18:18;8.40;;;3.10;;
19985;SDS011;10154;52.474;10.768;2023-08-06T02:20:43;5.22;;;2.35;;
19985;SDS011;10154;52.474;10.768;2023-08-06T02:23:20;5.40;;;2.63;;
19985;SDS011;10154;52.474;10.768;2023-08-06T02:25:45;4.25;;;2.22;;
19985;SDS011;10154;52.474;10.768;2023-08-06T02:28:10;3.53;;;2.30;;
19985;SDS011;10154;52.474;10.768;2023-08-06T02:30:36;3.80;;;2.23;;
19985;SDS011;10154;52.474;10.768;2023-08-06T02:33:01;2.67;;;2.30;;
19985;SDS011;10154;52.474;10.768;2023-08-06T02:35:26;3.30;;;1.85;;
19985;SDS011;10154;52.474;10.768;2023-08-06T02:37:52;3.40;;;2.08;;
19985;SDS011;10154;52.474;10.768;2023-08-06T02:40:17;3.30;;;1.80;;
19985;SDS011;10154;52.474;10.768;2023-08-06T02:42:42;3.67;;;1.77;;
19985;SDS011;10154;52.474;10.768;2023-08-06T02:45:08;4.07;;;1.90;;
19985;SDS011;10154;52.474;10.768;2023-08-06T02:47:33;3.15;;;1.90;;
19985;SDS011;10154;52.474;10.768;2023-08-06T02:49:59;2.37;;;2.03;;
19985;SDS011;10154;52.474;10.768;2023-08-06T02:52:24;5.22;;;1.90;;
19985;SDS011;10154;52.474;10.768;2023-08-06T02:54:49;3.92;;;1.70;;
19985;SDS011;10154;52.474;10.768;2023-08-06T02:57:15;3.03;;;2.10;;
19985;SDS011;10154;52.474;10.768;2023-08-06T02:59:40;4.30;;;2.37;;
19985;SDS011;10154;52.474;10.768;2023-08-06T03:02:06;5.25;;;2.20;;
19985;SDS011;10154;52.474;10.768;2023-08-06T03:04:31;4.13;;;2.30;;
19985;SDS011;10154;52.474;10.768;2023-08-06T03:06:56;2.50;;;2.00;;
19985;SDS011;10154;52.474;10.768;2023-08-06T03:09:22;2.77;;;2.10;;
19985;SDS011;10154;52.474;10.768;2023-08-06T03:11:47;3.73;;;2.23;;
19985;SDS011;10154;52.474;10.768;2023-08-06T03:14:12;4.53;;;2.50;;
19985;SDS011;10154;52.474;10.768;2023-08-06T03:16:38;2.80;;;2.05;;
19985;SDS011;10154;52.474;10.768;2023-08-06T03:19:03;2.60;;;1.80;;
19985;SDS011;10154;52.474;10.768;2023-08-06T03:21:29;3.73;;;1.83;;
19985;SDS011;10154;52.474;10.768;2023-08-06T03:23:54;2.90;;;2.10;;
19985;SDS011;10154;52.474;10.768;2023-08-06T03:26:20;4.10;;;2.30;;
19985;SDS011;10154;52.474;10.768;2023-08-06T03:28:45;6.57;;;2.40;;
19985;SDS011;10154;52.474;10.768;2023-08-06T03:31:10;7.23;;;2.63;;
19985;SDS011;10154;52.474;10.768;2023-08-06T03:33:36;4.47;;;2.95;;
19985;SDS011;10154;52.474;10.768;2023-08-06T03:36:01;3.90;;;2.80;;
19985;SDS011;10154;52.474;10.768;2023-08-06T03:38:27;3.40;;;2.37;;
19985;SDS011;10154;52.474;10.768;2023-08-06T03:40:52;3.97;;;2.50;;
19985;SDS011;10154;52.474;10.768;2023-08-06T03:43:18;8.70;;;2.77;;
19985;SDS011;10154;52.474;10.768;2023-08-06T03:45:43;5.67;;;2.90;;
19985;SDS011;10154;52.474;10.768;2023-08-06T03:48:09;3.47;;;2.80;;
19985;SDS011;10154;52.474;10.768;2023-08-06T03:50:34;7.10;;;3.10;;
19985;SDS011;10154;52.474;10.768;2023-08-06T03:53:00;4.22;;;3.25;;
19985;SDS011;10154;52.474;10.768;2023-08-06T03:55:25;7.93;;;3.30;;
19985;SDS011;10154;52.474;10.768;2023-08-06T03:57:50;5.00;;;3.30;;
19985;SDS011;10154;52.474;10.768;2023-08-06T04:00:16;4.57;;;3.50;;
19985;SDS011;10154;52.474;10.768;2023-08-06T04:02:41;5.45;;;3.30;;
19985;SDS011;10154;52.474;10.768;2023-08-06T04:05:07;5.13;;;3.40;;
19985;SDS011;10154;52.474;10.768;2023-08-06T04:07:33;5.50;;;3.10;;
19985;SDS011;10154;52.474;10.768;2023-08-06T04:09:58;4.47;;;3.10;;
19985;SDS011;10154;52.474;10.768;2023-08-06T04:12:25;6.90;;;3.33;;
19985;SDS011;10154;52.474;10.768;2023-08-06T04:14:51;7.23;;;3.20;;
19985;SDS011;10154;52.474;10.768;2023-08-06T04:17:19;5.03;;;3.50;;
19985;SDS011;10154;52.474;10.768;2023-08-06T04:19:52;4.93;;;3.30;;
19985;SDS011;10154;52.474;10.768;2023-08-06T04:22:18;5.77;;;3.40;;
19985;SDS011;10154;52.474;10.768;2023-08-06T04:24:43;5.05;;;3.60;;
19985;SDS011;10154;52.474;10.768;2023-08-06T04:27:09;5.97;;;3.80;;
19985;SDS011;10154;52.474;10.768;2023-08-06T04:29:35;5.50;;;3.33;;
19985;SDS011;10154;52.474;10.768;2023-08-06T04:32:01;4.32;;;3.53;;
19985;SDS011;10154;52.474;10.768;2023-08-06T04:34:26;4.77;;;3.47;;
19985;SDS011;10154;52.474;10.768;2023-08-06T04:36:51;4.70;;;3.47;;
19985;SDS011;10154;52.474;10.768;2023-08-06T04:39:17;6.63;;;3.37;;
19985;SDS011;10154;52.474;10.768;2023-08-06T04:41:42;5.37;;;3.67;;
19985;SDS011;10154;52.474;10.768;2023-08-06T04:44:07;8.10;;;4.13;;
19985;SDS011;10154;52.474;10.768;2023-08-06T04:46:33;6.43;;;3.80;;
19985;SDS011;10154;52.474;10.768;2023-08-06T04:48:58;5.13;;;3.70;;
19985;SDS011;10154;52.474;10.768;2023-08-06T04:51:23;8.70;;;4.03;;
19985;SDS011;10154;52.474;10.768;2023-08-06T04:53:49;9.93;;;3.70;;
19985;SDS011;10154;52.474;10.768;2023-08-06T04:56:14;5.27;;;3.20;;
19985;SDS011;10154;52.474;10.768;2023-08-06T04:58:39;6.45;;;3.33;;
19985;SDS011;10154;52.474;10.768;2023-08-06T05:01:05;4.77;;;3.20;;
19985;SDS011;10154;52.474;10.768;2023-08-06T05:03:30;5.67;;;3.30;;
19985;SDS011;10154;52.474;10.768;2023-08-06T05:05:55;4.60;;;2.90;;
19985;SDS011;10154;52.474;10.768;2023-08-06T05:08:21;3.37;;;2.70;;
19985;SDS011;10154;52.474;10.768;2023-08-06T05:10:46;5.17;;;2.90;;
19985;SDS011;10154;52.474;10.768;2023-08-06T05:13:11;7.67;;;2.70;;
19985;SDS011;10154;52.474;10.768;2023-08-06T05:15:37;4.77;;;2.37;;
19985;SDS011;10154;52.474;10.768;2023-08-06T05:18:04;4.10;;;2.90;;
19985;SDS011;10154;52.474;10.768;2023-08-06T05:20:30;4.30;;;2.73;;
19985;SDS011;10154;52.474;10.768;2023-08-06T05:22:55;3.83;;;2.80;;
19985;SDS011;10154;52.474;10.768;2023-08-06T05:25:20;3.47;;;2.53;;
19985;SDS011;10154;52.474;10.768;2023-08-06T05:27:46;5.73;;;3.07;;
19985;SDS011;10154;52.474;10.768;2023-08-06T05:30:11;4.77;;;2.83;;
19985;SDS011;10154;52.474;10.768;2023-08-06T05:32:37;3.25;;;2.55;;
19985;SDS011;10154;52.474;10.768;2023-08-06T05:35:02;7.63;;;2.80;;
19985;SDS011;10154;52.474;10.768;2023-08-06T05:37:28;3.17;;;2.45;;
19985;SDS011;10154;52.474;10.768;2023-08-06T05:39:53;5.50;;;2.72;;
19985;SDS011;10154;52.474;10.768;2023-08-06T05:42:18;6.72;;;2.40;;
19985;SDS011;10154;52.474;10.768;2023-08-06T05:44:44;3.78;;;2.50;;
19985;SDS011;10154;52.474;10.768;2023-08-06T05:47:09;6.00;;;2.58;;
19985;SDS011;10154;52.474;10.768;2023-08-06T05:49:34;6.57;;;2.77;;
19985;SDS011;10154;52.474;10.768;2023-08-06T05:52:00;3.90;;;2.58;;
19985;SDS011;10154;52.474;10.768;2023-08-06T05:54:25;4.70;;;2.42;;
19985;SDS011;10154;52.474;10.768;2023-08-06T05:56:50;4.15;;;2.70;;
19985;SDS011;10154;52.474;10.768;2023-08-06T05:59:16;5.05;;;2.83;;
19985;SDS011;10154;52.474;10.768;2023-08-06T06:01:41;4.30;;;2.53;;
19985;SDS011;10154;52.474;10.768;2023-08-06T06:04:06;6.68;;;2.72;;
19985;SDS011;10154;52.474;10.768;2023-08-06T06:06:32;6.13;;;2.80;;
19985;SDS011;10154;52.474;10.768;2023-08-06T06:08:57;3.40;;;2.58;;
19985;SDS011;10154;52.474;10.768;2023-08-06T06:11:23;3.47;;;2.15;;
19985;SDS011;10154;52.474;10.768;2023-08-06T06:13:51;4.55;;;2.47;;
19985;SDS011;10154;52.474;10.768;2023-08-06T06:16:17;5.18;;;2.45;;
19985;SDS011;10154;52.474;10.768;2023-08-06T06:18:42;3.15;;;2.38;;
19985;SDS011;10154;52.474;10.768;2023-08-06T06:21:08;8.90;;;2.60;;
19985;SDS011;10154;52.474;10.768;2023-08-06T06:23:33;3.17;;;2.05;;
19985;SDS011;10154;52.474;10.768;2023-08-06T06:25:59;3.23;;;2.50;;
19985;SDS011;10154;52.474;10.768;2023-08-06T06:28:24;4.15;;;2.20;;
19985;SDS011;10154;52.474;10.768;2023-08-06T06:30:51;3.95;;;2.60;;
19985;SDS011;10154;52.474;10.768;2023-08-06T06:33:16;5.18;;;2.70;;
19985;SDS011;10154;52.474;10.768;2023-08-06T06:35:42;4.50;;;2.30;;
19985;SDS011;10154;52.474;10.768;2023-08-06T06:38:07;4.53;;;2.28;;
19985;SDS011;10154;52.474;10.768;2023-08-06T06:40:32;2.97;;;2.25;;
19985;SDS011;10154;52.474;10.768;2023-08-06T06:42:58;3.35;;;2.33;;
19985;SDS011;10154;52.474;10.768;2023-08-06T06:45:23;4.00;;;2.53;;
19985;SDS011;10154;52.474;10.768;2023-08-06T06:47:48;3.92;;;2.58;;
19985;SDS011;10154;52.474;10.768;2023-08-06T06:50:14;3.17;;;2.40;;
19985;SDS011;10154;52.474;10.768;2023-08-06T06:52:39;6.97;;;2.83;;
19985;SDS011;10154;52.474;10.768;2023-08-06T06:55:05;4.13;;;2.35;;
19985;SDS011;10154;52.474;10.768;2023-08-06T06:57:30;3.92;;;2.58;;
19985;SDS011;10154;52.474;10.768;2023-08-06T06:59:55;4.05;;;2.20;;
19985;SDS011;10154;52.474;10.768;2023-08-06T07:02:21;7.05;;;2.30;;
19985;SDS011;10154;52.474;10.768;2023-08-06T07:04:46;4.60;;;2.53;;
19985;SDS011;10154;52.474;10.768;2023-08-06T07:07:11;3.33;;;2.42;;
19985;SDS011;10154;52.474;10.768;2023-08-06T07:09:37;4.65;;;2.30;;
19985;SDS011;10154;52.474;10.768;2023-08-06T07:12:02;3.63;;;2.30;;
19985;SDS011;10154;52.474;10.768;2023-08-06T07:14:28;3.08;;;2.40;;
19985;SDS011;10154;52.474;10.768;2023-08-06T07:16:54;6.50;;;2.50;;
19985;SDS011;10154;52.474;10.768;2023-08-06T07:19:19;3.75;;;2.60;;
19985;SDS011;10154;52.474;10.768;2023-08-06T07:21:45;3.17;;;2.38;;
19985;SDS011;10154;52.474;10.768;2023-08-06T07:24:10;3.15;;;2.20;;
19985;SDS011;10154;52.474;10.768;2023-08-06T07:26:36;2.88;;;2.08;;
19985;SDS011;10154;52.474;10.768;2023-08-06T07:29:02;4.47;;;2.00;;
19985;SDS011;10154;52.474;10.768;2023-08-06T07:31:28;3.78;;;2.20;;
19985;SDS011;10154;52.474;10.768;2023-08-06T07:33:53;3.97;;;2.30;;
19985;SDS011;10154;52.474;10.768;2023-08-06T07:36:18;2.97;;;2.20;;
19985;SDS011;10154;52.474;10.768;2023-08-06T07:38:44;6.55;;;1.92;;
19985;SDS011;10154;52.474;10.768;2023-08-06T07:41:09;2.63;;;1.70;;
19985;SDS011;10154;52.474;10.768;2023-08-06T07:43:34;3.58;;;2.08;;
19985;SDS011;10154;52.474;10.768;2023-08-06T07:46:01;2.63;;;1.95;;
19985;SDS011;10154;52.474;10.768;2023-08-06T07:48:27;3.40;;;2.08;;
19985;SDS011;10154;52.474;10.768;2023-08-06T07:50:53;3.28;;;2.00;;
19985;SDS011;10154;52.474;10.768;2023-08-06T07:53:19;12.88;;;2.25;;
19985;SDS011;10154;52.474;10.768;2023-08-06T07:55:51;2.95;;;1.83;;
19985;SDS011;10154;52.474;10.768;2023-08-06T07:58:17;4.07;;;1.98;;
19985;SDS011;10154;52.474;10.768;2023-08-06T08:00:44;2.38;;;1.67;;
19985;SDS011;10154;52.474;10.768;2023-08-06T08:03:11;2.58;;;1.83;;
19985;SDS011;10154;52.474;10.768;2023-08-06T08:05:38;2.60;;;1.73;;
19985;SDS011;10154;52.474;10.768;2023-08-06T08:08:04;2.42;;;1.60;;
19985;SDS011;10154;52.474;10.768;2023-08-06T08:10:29;3.85;;;1.67;;
19985;SDS011;10154;52.474;10.768;2023-08-06T08:12:56;2.22;;;1.33;;
19985;SDS011;10154;52.474;10.768;2023-08-06T08:15:21;2.80;;;1.48;;
19985;SDS011;10154;52.474;10.768;2023-08-06T08:17:46;2.35;;;1.30;;
19985;SDS011;10154;52.474;10.768;2023-08-06T08:20:15;2.08;;;1.40;;
19985;SDS011;10154;52.474;10.768;2023-08-06T08:22:41;1.65;;;1.15;;
19985;SDS011;10154;52.474;10.768;2023-08-06T08:25:07;1.98;;;1.45;;
19985;SDS011;10154;52.474;10.768;2023-08-06T08:27:32;2.30;;;1.48;;
19985;SDS011;10154;52.474;10.768;2023-08-06T08:29:57;1.95;;;1.35;;
19985;SDS011;10154;52.474;10.768;2023-08-06T08:32:23;2.10;;;1.60;;
19985;SDS011;10154;52.474;10.768;2023-08-06T08:34:48;1.30;;;1.20;;
19985;SDS011;10154;52.474;10.768;2023-08-06T08:37:14;2.45;;;1.60;;
19985;SDS011;10154;52.474;10.768;2023-08-06T08:39:39;2.83;;;1.40;;
19985;SDS011;10154;52.474;10.768;2023-08-06T08:42:05;1.70;;;1.40;;
19985;SDS011;10154;52.474;10.768;2023-08-06T08:44:32;1.60;;;1.30;;
19985;SDS011;10154;52.474;10.768;2023-08-06T08:46:58;1.83;;;1.35;;
19985;SDS011;10154;52.474;10.768;2023-08-06T08:49:24;5.20;;;1.48;;
19985;SDS011;10154;52.474;10.768;2023-08-06T08:51:52;3.33;;;1.20;;
19985;SDS011;10154;52.474;10.768;2023-08-06T08:54:18;1.85;;;1.00;;
19985;SDS011;10154;52.474;10.768;2023-08-06T08:56:43;1.10;;;1.00;;
19985;SDS011;10154;52.474;10.768;2023-08-06T08:59:09;1.20;;;0.82;;
19985;SDS011;10154;52.474;10.768;2023-08-06T09:01:35;1.13;;;0.90;;
19985;SDS011;10154;52.474;10.768;2023-08-06T09:04:04;1.98;;;1.45;;
19985;SDS011;10154;52.474;10.768;2023-08-06T09:06:30;1.67;;;1.10;;
19985;SDS011;10154;52.474;10.768;2023-08-06T09:09:03;1.17;;;1.05;;
19985;SDS011;10154;52.474;10.768;2023-08-06T09:11:35;1.00;;;0.90;;
19985;SDS011;10154;52.474;10.768;2023-08-06T09:14:04;1.80;;;1.30;;
19985;SDS011;10154;52.474;10.768;2023-08-06T09:16:37;1.52;;;1.05;;
19985;SDS011;10154;52.474;10.768;2023-08-06T09:19:09;3.63;;;1.02;;
19985;SDS011;10154;52.474;10.768;2023-08-06T09:21:37;1.27;;;1.00;;
19985;SDS011;10154;52.474;10.768;2023-08-06T09:24:10;1.10;;;1.00;;
19985;SDS011;10154;52.474;10.768;2023-08-06T09:26:37;1.25;;;1.00;;
19985;SDS011;10154;52.474;10.768;2023-08-06T09:29:04;1.48;;;1.02;;
19985;SDS011;10154;52.474;10.768;2023-08-06T09:31:38;1.35;;;0.95;;
19985;SDS011;10154;52.474;10.768;2023-08-06T09:34:20;1.02;;;0.90;;
19985;SDS011;10154;52.474;10.768;2023-08-06T09:36:50;1.10;;;1.00;;
19985;SDS011;10154;52.474;10.768;2023-08-06T09:39:20;1.65;;;1.25;;
19985;SDS011;10154;52.474;10.768;2023-08-06T09:41:47;1.58;;;0.90;;
19985;SDS011;10154;52.474;10.768;2023-08-06T09:44:20;1.15;;;1.05;;
19985;SDS011;10154;52.474;10.768;2023-08-06T09:46:53;1.40;;;1.10;;
19985;SDS011;10154;52.474;10.768;2023-08-06T09:49:20;1.30;;;1.10;;
19985;SDS011;10154;52.474;10.768;2023-08-06T09:51:58;1.42;;;1.10;;
19985;SDS011;10154;52.474;10.768;2023-08-06T09:54:25;1.23;;;1.00;;
19985;SDS011;10154;52.474;10.768;2023-08-06T09:56:55;1.10;;;1.00;;
19985;SDS011;10154;52.474;10.768;2023-08-06T09:59:20;2.25;;;0.90;;
19985;SDS011;10154;52.474;10.768;2023-08-06T10:01:46;1.20;;;1.08;;
19985;SDS011;10154;52.474;10.768;2023-08-06T10:04:12;1.55;;;1.17;;
19985;SDS011;10154;52.474;10.768;2023-08-06T10:06:41;0.90;;;0.88;;
19985;SDS011;10154;52.474;10.768;2023-08-06T10:09:07;1.75;;;1.10;;
19985;SDS011;10154;52.474;10.768;2023-08-06T10:11:34;1.10;;;1.00;;
19985;SDS011;10154;52.474;10.768;2023-08-06T10:14:06;2.95;;;1.42;;
19985;SDS011;10154;52.474;10.768;2023-08-06T10:16:35;1.83;;;1.20;;
19985;SDS011;10154;52.474;10.768;2023-08-06T10:19:03;1.48;;;1.27;;
19985;SDS011;10154;52.474;10.768;2023-08-06T10:21:30;1.98;;;1.30;;
19985;SDS011;10154;52.474;10.768;2023-08-06T10:23:57;1.50;;;1.15;;
19985;SDS011;10154;52.474;10.768;2023-08-06T10:26:26;1.63;;;1.35;;
19985;SDS011;10154;52.474;10.768;2023-08-06T10:28:52;1.65;;;1.48;;
19985;SDS011;10154;52.474;10.768;2023-08-06T10:31:18;2.20;;;1.30;;
19985;SDS011;10154;52.474;10.768;2023-08-06T10:33:44;2.30;;;1.42;;
19985;SDS011;10154;52.474;10.768;2023-08-06T10:36:11;1.50;;;1.40;;
19985;SDS011;10154;52.474;10.768;2023-08-06T10:38:58;1.33;;;1.23;;
19985;SDS011;10154;52.474;10.768;2023-08-06T10:41:31;1.38;;;1.27;;
19985;SDS011;10154;52.474;10.768;2023-08-06T10:44:06;1.58;;;1.48;;
19985;SDS011;10154;52.474;10.768;2023-08-06T10:46:35;1.38;;;1.10;;
19985;SDS011;10154;52.474;10.768;2023-08-06T10:49:02;1.17;;;1.05;;
19985;SDS011;10154;52.474;10.768;2023-08-06T10:51:29;1.23;;;1.00;;
19985;SDS011;10154;52.474;10.768;2023-08-06T10:53:54;1.30;;;1.20;;
19985;SDS011;10154;52.474;10.768;2023-08-06T10:56:21;1.20;;;1.10;;
19985;SDS011;10154;52.474;10.768;2023-08-06T10:58:47;2.85;;;1.40;;
19985;SDS011;10154;52.474;10.768;2023-08-06T11:01:14;0.93;;;0.90;;
19985;SDS011;10154;52.474;10.768;2023-08-06T11:03:42;2.10;;;1.25;;
19985;SDS011;10154;52.474;10.768;2023-08-06T11:06:08;1.20;;;1.10;;
19985;SDS011;10154;52.474;10.768;2023-08-06T11:08:35;0.98;;;0.90;;
19985;SDS011;10154;52.474;10.768;2023-08-06T11:11:11;1.30;;;1.20;;
19985;SDS011;10154;52.474;10.768;2023-08-06T11:13:40;3.05;;;1.20;;
19985;SDS011;10154;52.474;10.768;2023-08-06T11:16:07;1.15;;;1.05;;
19985;SDS011;10154;52.474;10.768;2023-08-06T11:18:33;1.70;;;1.30;;
19985;SDS011;10154;52.474;10.768;2023-08-06T11:20:59;1.40;;;1.30;;
19985;SDS011;10154;52.474;10.768;2023-08-06T11:23:26;1.67;;;1.40;;
19985;SDS011;10154;52.474;10.768;2023-08-06T11:25:53;1.65;;;1.20;;
19985;SDS011;10154;52.474;10.768;2023-08-06T11:28:19;0.90;;;0.90;;
19985;SDS011;10154;52.474;10.768;2023-08-06T11:30:46;1.25;;;1.15;;
19985;SDS011;10154;52.474;10.768;2023-08-06T11:33:12;1.20;;;1.10;;
19985;SDS011;10154;52.474;10.768;2023-08-06T11:35:37;1.15;;;1.05;;
19985;SDS011;10154;52.474;10.768;2023-08-06T11:38:03;1.20;;;1.10;;
19985;SDS011;10154;52.474;10.768;2023-08-06T11:40:28;1.40;;;1.10;;
19985;SDS011;10154;52.474;10.768;2023-08-06T11:42:53;2.40;;;1.20;;
19985;SDS011;10154;52.474;10.768;2023-08-06T11:45:22;1.33;;;1.20;;
19985;SDS011;10154;52.474;10.768;2023-08-06T11:47:51;1.20;;;1.00;;
19985;SDS011;10154;52.474;10.768;2023-08-06T11:50:23;1.48;;;1.15;;
19985;SDS011;10154;52.474;10.768;2023-08-06T11:52:49;1.20;;;1.10;;
19985;SDS011;10154;52.474;10.768;2023-08-06T11:55:19;1.30;;;1.20;;
19985;SDS011;10154;52.474;10.768;2023-08-06T11:57:48;2.00;;;1.35;;
19985;SDS011;10154;52.474;10.768;2023-08-06T12:00:13;1.42;;;1.10;;
19985;SDS011;10154;52.474;10.768;2023-08-06T12:02:40;1.30;;;1.20;;
19985;SDS011;10154;52.474;10.768;2023-08-06T12:07:32;1.10;;;1.00;;
19985;SDS011;10154;52.474;10.768;2023-08-06T12:09:58;1.10;;;1.00;;
19985;SDS011;10154;52.474;10.768;2023-08-06T12:12:24;1.10;;;1.00;;
19985;SDS011;10154;52.474;10.768;2023-08-06T12:14:49;3.70;;;1.30;;
19985;SDS011;10154;52.474;10.768;2023-08-06T12:17:15;2.17;;;1.40;;
19985;SDS011;10154;52.474;10.768;2023-08-06T12:19:40;3.83;;;1.40;;
19985;SDS011;10154;52.474;10.768;2023-08-06T12:22:05;1.58;;;1.25;;
19985;SDS011;10154;52.474;10.768;2023-08-06T12:24:31;1.20;;;1.10;;
19985;SDS011;10154;52.474;10.768;2023-08-06T12:26:59;1.40;;;1.30;;
19985;SDS011;10154;52.474;10.768;2023-08-06T12:29:26;1.70;;;1.30;;
19985;SDS011;10154;52.474;10.768;2023-08-06T12:31:53;1.30;;;1.20;;
19985;SDS011;10154;52.474;10.768;2023-08-06T12:34:18;2.92;;;1.30;;
19985;SDS011;10154;52.474;10.768;2023-08-06T12:36:43;2.35;;;1.70;;
19985;SDS011;10154;52.474;10.768;2023-08-06T12:39:09;1.27;;;1.17;;
19985;SDS011;10154;52.474;10.768;2023-08-06T12:41:35;2.58;;;1.50;;
19985;SDS011;10154;52.474;10.768;2023-08-06T12:44:00;1.83;;;1.50;;
19985;SDS011;10154;52.474;10.768;2023-08-06T12:46:26;3.00;;;1.30;;
19985;SDS011;10154;52.474;10.768;2023-08-06T12:48:51;1.60;;;1.50;;
19985;SDS011;10154;52.474;10.768;2023-08-06T12:51:17;1.60;;;1.30;;
19985;SDS011;10154;52.474;10.768;2023-08-06T12:53:43;2.65;;;1.67;;
19985;SDS011;10154;52.474;10.768;2023-08-06T12:56:08;2.33;;;1.90;;
19985;SDS011;10154;52.474;10.768;2023-08-06T12:58:33;2.72;;;1.40;;
19985;SDS011;10154;52.474;10.768;2023-08-06T13:00:59;1.80;;;1.65;;
19985;SDS011;10154;52.474;10.768;2023-08-06T13:03:24;1.92;;;1.63;;
19985;SDS011;10154;52.474;10.768;2023-08-06T13:05:49;1.77;;;1.58;;
19985;SDS011;10154;52.474;10.768;2023-08-06T13:08:15;2.08;;;1.52;;
19985;SDS011;10154;52.474;10.768;2023-08-06T13:10:40;2.45;;;1.70;;
19985;SDS011;10154;52.474;10.768;2023-08-06T13:13:06;1.58;;;1.40;;
19985;SDS011;10154;52.474;10.768;2023-08-06T13:15:31;1.92;;;1.67;;
19985;SDS011;10154;52.474;10.768;2023-08-06T13:17:56;1.67;;;1.42;;
19985;SDS011;10154;52.474;10.768;2023-08-06T13:20:22;2.75;;;1.75;;
19985;SDS011;10154;52.474;10.768;2023-08-06T13:22:48;2.25;;;1.58;;
19985;SDS011;10154;52.474;10.768;2023-08-06T13:25:15;1.40;;;1.20;;
19985;SDS011;10154;52.474;10.768;2023-08-06T13:27:42;1.75;;;1.50;;
19985;SDS011;10154;52.474;10.768;2023-08-06T13:30:09;1.73;;;1.30;;
19985;SDS011;10154;52.474;10.768;2023-08-06T13:32:35;2.00;;;1.80;;
19985;SDS011;10154;52.474;10.768;2023-08-06T13:35:01;4.00;;;1.80;;
19985;SDS011;10154;52.474;10.768;2023-08-06T13:37:28;1.80;;;1.55;;
19985;SDS011;10154;52.474;10.768;2023-08-06T13:39:53;1.90;;;1.67;;
19985;SDS011;10154;52.474;10.768;2023-08-06T13:42:18;1.77;;;1.50;;
19985;SDS011;10154;52.474;10.768;2023-08-06T13:44:44;1.35;;;1.25;;
19985;SDS011;10154;52.474;10.768;2023-08-06T13:47:09;1.70;;;1.60;;
19985;SDS011;10154;52.474;10.768;2023-08-06T13:49:34;1.65;;;1.30;;
19985;SDS011;10154;52.474;10.768;2023-08-06T13:51:59;3.60;;;1.90;;
19985;SDS011;10154;52.474;10.768;2023-08-06T13:54:25;3.92;;;1.63;;
19985;SDS011;10154;52.474;10.768;2023-08-06T13:56:50;1.70;;;1.60;;
19985;SDS011;10154;52.474;10.768;2023-08-06T13:59:17;2.45;;;1.90;;
19985;SDS011;10154;52.474;10.768;2023-08-06T14:01:44;3.67;;;1.55;;
19985;SDS011;10154;52.474;10.768;2023-08-06T14:04:10;1.48;;;1.38;;
19985;SDS011;10154;52.474;10.768;2023-08-06T14:06:35;1.55;;;1.45;;
19985;SDS011;10154;52.474;10.768;2023-08-06T14:09:01;1.48;;;1.38;;
19985;SDS011;10154;52.474;10.768;2023-08-06T14:11:26;1.92;;;1.50;;
19985;SDS011;10154;52.474;10.768;2023-08-06T14:13:52;1.58;;;1.35;;
19985;SDS011;10154;52.474;10.768;2023-08-06T14:16:17;1.63;;;1.50;;
19985;SDS011;10154;52.474;10.768;2023-08-06T14:18:43;1.80;;;1.60;;
19985;SDS011;10154;52.474;10.768;2023-08-06T14:21:08;2.80;;;1.73;;
19985;SDS011;10154;52.474;10.768;2023-08-06T14:23:33;2.22;;;1.50;;
19985;SDS011;10154;52.474;10.768;2023-08-06T14:25:59;3.08;;;1.50;;
19985;SDS011;10154;52.474;10.768;2023-08-06T14:28:24;1.98;;;1.60;;
19985;SDS011;10154;52.474;10.768;2023-08-06T14:30:49;1.63;;;1.48;;
19985;SDS011;10154;52.474;10.768;2023-08-06T14:33:15;4.35;;;1.85;;
19985;SDS011;10154;52.474;10.768;2023-08-06T14:35:41;1.58;;;1.33;;